Time;durP1;ratioP1;P1;durP2;ratioP2;P2;SDS_P1;SDS_P2;PMS_P1;PMS_P2;Temp;Humidity;BMP_temperature;BMP_pressure;BME280_temperature;BME280_humidity;BME280_pressure;Samples;Min_cycle;Max_cycle;Signal;HPM_P1;HPM_P2
2022/04/02 00:01:15;;;;;;;4.93;2.30;;;1.30;99.90;;;;;;5042844;28;20053;-79
2022/04/02 00:03:41;;;;;;;4.65;2.30;;;1.30;99.90;;;;;;5049236;28;20128;-79
2022/04/02 00:06:07;;;;;;;4.20;2.40;;;1.30;99.90;;;;;;5048665;28;20131;-79
2022/04/02 00:08:34;;;;;;;5.05;2.28;;;1.20;99.90;;;;;;5050859;28;20044;-79
2022/04/02 00:10:59;;;;;;;4.13;2.50;;;1.20;99.90;;;;;;5043819;28;20044;-79
2022/04/02 00:13:25;;;;;;;4.18;2.45;;;1.20;99.90;;;;;;5049354;28;20063;-78
2022/04/02 00:15:51;;;;;;;3.25;2.40;;;1.20;99.90;;;;;;5029288;28;20132;-79
2022/04/02 00:18:16;;;;;;;3.47;2.45;;;1.10;99.90;;;;;;5048768;28;20440;-78
2022/04/02 00:20:42;;;;;;;4.00;2.20;;;1.00;99.90;;;;;;5032221;28;20044;-78
2022/04/02 00:25:52;;;;;;;3.85;2.33;;;1.00;99.90;;;;;;5048937;28;20051;-79
2022/04/02 00:28:17;;;;;;;3.40;2.47;;;1.00;99.90;;;;;;5048256;28;20406;-79
2022/04/02 00:30:43;;;;;;;3.97;2.50;;;0.90;99.90;;;;;;5040891;28;20720;-79
2022/04/02 00:33:10;;;;;;;5.03;2.40;;;0.90;99.90;;;;;;5028649;28;20406;-78
2022/04/02 00:35:36;;;;;;;4.32;2.33;;;0.90;99.90;;;;;;5034141;28;20067;-78
2022/04/02 00:38:02;;;;;;;2.90;2.50;;;0.80;99.90;;;;;;5042090;28;20041;-78
2022/04/02 00:40:28;;;;;;;3.63;2.63;;;0.80;99.90;;;;;;5043047;28;20034;-79
2022/04/02 00:42:54;;;;;;;3.70;2.78;;;0.80;99.90;;;;;;5045051;28;20041;-79
2022/04/02 00:45:19;;;;;;;3.95;2.50;;;0.80;99.90;;;;;;5032998;28;20041;-79
2022/04/02 00:47:45;;;;;;;3.92;2.63;;;0.70;99.90;;;;;;5049939;28;20453;-78
2022/04/02 00:50:11;;;;;;;5.82;2.63;;;0.70;99.90;;;;;;5045828;28;20432;-79
2022/04/02 00:52:40;;;;;;;3.55;2.33;;;0.70;99.90;;;;;;5045540;28;20155;-79
2022/04/02 00:55:06;;;;;;;4.50;2.83;;;0.70;99.90;;;;;;5047928;28;20049;-78
2022/04/02 00:57:32;;;;;;;3.67;2.60;;;0.60;99.90;;;;;;5049552;28;20650;-79
2022/04/02 00:59:57;;;;;;;4.53;2.55;;;0.60;99.90;;;;;;5045229;28;20040;-79
2022/04/02 01:02:23;;;;;;;4.05;2.72;;;0.60;99.90;;;;;;5034122;28;20072;-78
2022/04/02 01:04:49;;;;;;;4.57;2.92;;;0.50;99.90;;;;;;5040024;28;20068;-78
2022/04/02 01:07:19;;;;;;;4.95;2.47;;;0.50;99.90;;;;;;5029332;28;20079;-78
2022/04/02 01:09:45;;;;;;;3.67;2.47;;;0.50;99.90;;;;;;5041921;28;20049;-78
2022/04/02 01:12:11;;;;;;;3.88;2.70;;;0.40;99.90;;;;;;5047965;28;20056;-78
2022/04/02 01:14:37;;;;;;;5.32;3.20;;;0.40;99.90;;;;;;5048564;28;20589;-78
2022/04/02 01:17:04;;;;;;;3.58;2.85;;;0.40;99.90;;;;;;5044521;28;20120;-79
2022/04/02 01:19:30;;;;;;;4.20;2.75;;;0.40;99.90;;;;;;5049919;28;20715;-78
2022/04/02 01:21:56;;;;;;;7.90;2.90;;;0.40;99.90;;;;;;5048036;28;20045;-79
2022/04/02 01:24:21;;;;;;;5.07;3.47;;;0.30;99.90;;;;;;5047601;28;20518;-78
2022/04/02 01:26:47;;;;;;;5.95;3.33;;;0.30;99.90;;;;;;5032153;28;20368;-78
2022/04/02 01:29:13;;;;;;;5.20;2.60;;;0.30;99.90;;;;;;5049719;28;20514;-78
2022/04/02 01:31:43;;;;;;;4.60;2.90;;;0.30;99.90;;;;;;5028758;28;20119;-78
2022/04/02 01:34:09;;;;;;;5.57;2.90;;;0.20;99.90;;;;;;5047647;28;20048;-78
2022/04/02 01:36:34;;;;;;;3.88;2.63;;;0.20;99.90;;;;;;5027175;28;20051;-78
2022/04/02 01:39:00;;;;;;;3.58;3.10;;;0.20;99.90;;;;;;5048687;28;20044;-78
2022/04/02 01:41:26;;;;;;;5.25;3.10;;;0.20;99.90;;;;;;5046634;28;20071;-79
2022/04/02 01:43:51;;;;;;;3.28;2.75;;;0.20;99.90;;;;;;5030365;28;20472;-79
2022/04/02 01:46:17;;;;;;;6.57;3.13;;;0.20;99.90;;;;;;5041554;28;20049;-79
2022/04/02 01:48:42;;;;;;;3.88;2.80;;;0.20;99.90;;;;;;5043264;28;20549;-79
2022/04/02 01:51:08;;;;;;;3.67;2.95;;;0.20;99.90;;;;;;5043340;28;20045;-78
2022/04/02 01:53:34;;;;;;;4.65;3.45;;;0.30;99.90;;;;;;5050239;28;20080;-79
2022/04/02 01:56:00;;;;;;;4.88;3.03;;;0.40;99.90;;;;;;5043157;28;20036;-78
2022/04/02 01:58:26;;;;;;;3.92;2.63;;;0.40;99.90;;;;;;5047447;28;20045;-79
2022/04/02 02:00:51;;;;;;;5.95;3.20;;;0.40;99.90;;;;;;5053191;28;20037;-79
2022/04/02 02:03:17;;;;;;;4.03;2.75;;;0.40;99.90;;;;;;5035976;28;20352;-79
2022/04/02 02:05:44;;;;;;;5.68;2.75;;;0.40;99.90;;;;;;5048562;28;20049;-79
2022/04/02 02:08:10;;;;;;;5.38;3.20;;;0.30;99.90;;;;;;5046673;28;20049;-79
2022/04/02 02:10:36;;;;;;;6.53;2.90;;;0.30;99.90;;;;;;5049034;28;20098;-78
2022/04/02 02:13:02;;;;;;;5.30;2.95;;;0.30;99.90;;;;;;5047849;28;20540;-79
2022/04/02 02:15:28;;;;;;;5.38;3.63;;;0.20;99.90;;;;;;5042468;28;20041;-79
2022/04/02 02:17:54;;;;;;;4.22;2.95;;;0.20;99.90;;;;;;5052391;28;20047;-79
2022/04/02 02:20:20;;;;;;;6.68;3.40;;;0.20;99.90;;;;;;5050396;28;20436;-79
2022/04/02 02:22:47;;;;;;;6.45;3.00;;;0.20;99.90;;;;;;5031182;28;20033;-79
2022/04/02 02:25:14;;;;;;;4.28;3.13;;;0.20;99.90;;;;;;5045702;28;20470;-79
2022/04/02 02:27:41;;;;;;;4.30;2.92;;;0.10;99.90;;;;;;5051498;28;20041;-79
2022/04/02 02:30:09;;;;;;;4.55;2.90;;;0.10;99.90;;;;;;5048110;28;20041;-79
2022/04/02 02:32:36;;;;;;;4.43;3.00;;;0.10;99.90;;;;;;5048997;28;20040;-79
2022/04/02 02:38:08;;;;;;;4.65;2.83;;;0.00;99.90;;;;;;5050086;28;20084;-79
2022/04/02 02:40:34;;;;;;;4.90;2.95;;;0.00;99.90;;;;;;5049283;28;20127;-79
2022/04/02 02:43:00;;;;;;;4.40;2.92;;;0.00;99.90;;;;;;5043776;28;20053;-79
2022/04/02 02:45:26;;;;;;;3.90;2.97;;;0.00;99.90;;;;;;5051664;28;20140;-79
2022/04/02 02:47:53;;;;;;;4.20;3.17;;;0.00;99.90;;;;;;5030774;28;20037;-79
2022/04/02 02:50:19;;;;;;;4.32;2.70;;;-0.10;99.90;;;;;;5042926;28;20033;-79
2022/04/02 02:52:45;;;;;;;4.47;3.15;;;-0.10;99.90;;;;;;5045696;28;20079;-79
2022/04/02 02:55:10;;;;;;;4.63;3.10;;;-0.10;99.90;;;;;;5031872;28;20041;-79
2022/04/02 02:57:40;;;;;;;5.68;2.80;;;-0.10;99.90;;;;;;5049100;28;20037;-79
2022/04/02 03:00:09;;;;;;;4.28;2.70;;;-0.10;99.90;;;;;;5049412;28;20041;-79
2022/04/02 03:02:39;;;;;;;5.22;2.90;;;-0.10;99.90;;;;;;5046415;28;20060;-79
2022/04/02 03:05:10;;;;;;;4.80;3.35;;;-0.10;99.90;;;;;;5049574;28;20102;-79
2022/04/02 03:07:37;;;;;;;4.38;2.90;;;-0.10;99.90;;;;;;5035090;28;20064;-79
2022/04/02 03:10:04;;;;;;;5.93;3.10;;;-0.10;99.90;;;;;;5051923;28;20123;-79
2022/04/02 03:12:29;;;;;;;4.40;2.97;;;-0.10;99.90;;;;;;5032988;28;20037;-79
2022/04/02 03:14:55;;;;;;;6.13;3.20;;;-0.10;99.90;;;;;;5051685;28;20037;-79
2022/04/02 03:17:21;;;;;;;4.40;2.50;;;0.00;99.90;;;;;;5051487;28;20036;-79
2022/04/02 03:19:47;;;;;;;4.80;2.70;;;0.00;99.90;;;;;;5051709;28;20957;-79
2022/04/02 03:22:12;;;;;;;3.92;2.95;;;0.00;99.90;;;;;;5050235;28;20037;-79
2022/04/02 03:24:38;;;;;;;4.47;2.75;;;0.00;99.90;;;;;;5035799;28;20044;-80
2022/04/02 03:27:04;;;;;;;3.85;2.92;;;0.00;99.90;;;;;;5051415;28;20055;-79
2022/04/02 03:29:30;;;;;;;7.93;3.00;;;-0.10;99.90;;;;;;5035085;28;20059;-79
2022/04/02 03:31:55;;;;;;;5.00;3.00;;;-0.10;99.90;;;;;;5050506;28;20733;-79
2022/04/02 03:34:21;;;;;;;4.13;2.95;;;-0.10;99.90;;;;;;5041915;28;20048;-79
2022/04/02 03:36:47;;;;;;;4.10;3.00;;;-0.10;99.90;;;;;;5051189;28;20533;-79
2022/04/02 03:39:13;;;;;;;6.57;2.83;;;-0.10;99.90;;;;;;5050409;28;20120;-79
2022/04/02 03:41:40;;;;;;;5.18;3.08;;;-0.10;99.90;;;;;;5049321;28;20057;-79
2022/04/02 03:44:05;;;;;;;4.22;2.67;;;-0.10;99.90;;;;;;5051321;28;20045;-79
2022/04/02 03:49:15;;;;;;;3.38;2.70;;;-0.10;99.90;;;;;;5046841;28;20080;-78
2022/04/02 03:51:41;;;;;;;4.72;3.03;;;-0.10;99.90;;;;;;5053938;22;20088;-74
2022/04/02 03:54:07;;;;;;;3.85;2.78;;;-0.10;99.90;;;;;;5024085;28;20060;-74
2022/04/02 03:56:32;;;;;;;3.97;2.65;;;-0.20;99.90;;;;;;5031963;28;20037;-74
2022/04/02 03:58:58;;;;;;;4.30;2.80;;;-0.10;99.90;;;;;;5035703;28;20041;-74
2022/04/02 04:01:23;;;;;;;4.00;2.58;;;-0.20;99.90;;;;;;5015211;28;20042;-74
2022/04/02 04:03:49;;;;;;;5.80;2.90;;;-0.20;99.90;;;;;;5030335;28;20040;-74
2022/04/02 04:06:15;;;;;;;4.15;2.53;;;-0.20;99.90;;;;;;5020412;28;20631;-74
2022/04/02 04:08:40;;;;;;;4.30;2.85;;;-0.20;99.90;;;;;;5039571;28;20080;-74
2022/04/02 04:11:06;;;;;;;6.75;2.80;;;-0.20;99.90;;;;;;5028346;28;20096;-74
2022/04/02 04:13:32;;;;;;;4.65;2.85;;;-0.20;99.90;;;;;;5029424;28;20041;-74
2022/04/02 04:15:58;;;;;;;5.28;2.67;;;-0.20;99.90;;;;;;5029448;28;20052;-74
2022/04/02 04:18:24;;;;;;;4.07;2.70;;;-0.10;99.90;;;;;;5022186;28;20041;-74
2022/04/02 04:20:49;;;;;;;4.43;2.80;;;-0.10;99.90;;;;;;5022881;28;20060;-74
2022/04/02 04:23:15;;;;;;;5.18;2.90;;;-0.10;99.90;;;;;;5019391;28;20567;-74
2022/04/02 04:25:41;;;;;;;5.07;2.75;;;-0.10;99.90;;;;;;5037415;28;20045;-74
2022/04/02 04:28:06;;;;;;;5.72;2.60;;;-0.10;99.90;;;;;;5030285;28;20125;-74
2022/04/02 04:30:34;;;;;;;4.70;2.60;;;0.00;99.90;;;;;;5029076;28;20037;-74
2022/04/02 04:32:59;;;;;;;3.97;2.83;;;0.00;99.90;;;;;;5026037;28;20033;-74
2022/04/02 04:35:25;;;;;;;4.25;2.50;;;0.00;99.90;;;;;;5024008;28;20034;-74
2022/04/02 04:37:52;;;;;;;4.70;3.05;;;0.00;99.90;;;;;;5025082;28;20076;-74
2022/04/02 04:40:18;;;;;;;4.70;2.70;;;0.00;99.90;;;;;;5018620;28;20495;-75
2022/04/02 04:42:43;;;;;;;4.32;2.75;;;0.00;99.90;;;;;;5025771;28;20643;-74
2022/04/02 04:45:09;;;;;;;5.57;2.90;;;0.00;99.90;;;;;;5029761;28;20044;-74
2022/04/02 04:47:35;;;;;;;6.13;2.88;;;-0.10;99.90;;;;;;5035730;28;20079;-74
2022/04/02 04:50:00;;;;;;;7.65;2.90;;;-0.10;99.90;;;;;;5030804;28;20125;-74
2022/04/02 04:52:26;;;;;;;6.47;2.42;;;-0.10;99.90;;;;;;5033327;28;20063;-74
2022/04/02 04:54:52;;;;;;;5.90;2.80;;;-0.20;99.90;;;;;;5023877;28;20073;-75
2022/04/02 04:57:17;;;;;;;5.05;2.65;;;-0.20;99.90;;;;;;5029727;28;20049;-75
2022/04/02 04:59:43;;;;;;;7.13;2.60;;;-0.10;99.90;;;;;;5036065;28;20029;-75
2022/04/02 05:02:12;;;;;;;4.28;2.40;;;-0.10;99.90;;;;;;5008011;28;20074;-74
2022/04/02 05:04:38;;;;;;;3.22;2.50;;;-0.20;99.90;;;;;;5031224;28;20715;-76
2022/04/02 05:07:04;;;;;;;3.63;2.58;;;-0.10;99.90;;;;;;5009698;28;20049;-76
2022/04/02 05:09:29;;;;;;;7.28;2.67;;;-0.10;99.90;;;;;;5048917;28;20044;-75
2022/04/02 05:11:57;;;;;;;5.40;2.90;;;0.00;99.90;;;;;;5027435;28;20037;-75
2022/04/02 05:14:23;;;;;;;3.40;2.30;;;0.10;99.90;;;;;;5014358;28;20124;-74
2022/04/02 05:16:48;;;;;;;4.85;2.80;;;0.20;99.90;;;;;;5028060;28;20120;-75
2022/04/02 05:19:14;;;;;;;5.38;2.58;;;0.30;99.90;;;;;;5038665;28;20042;-75
2022/04/02 05:21:39;;;;;;;7.28;3.13;;;0.50;99.90;;;;;;5023888;28;20128;-75
2022/04/02 05:24:05;;;;;;;5.18;3.00;;;0.50;99.90;;;;;;5010074;28;20037;-74
2022/04/02 05:26:31;;;;;;;5.50;2.90;;;0.60;99.90;;;;;;5028075;28;20113;-75
2022/04/02 05:28:56;;;;;;;5.78;2.60;;;0.60;99.90;;;;;;5042853;28;20084;-75
2022/04/02 05:31:23;;;;;;;4.63;3.10;;;0.70;99.90;;;;;;5026582;28;20471;-75
2022/04/02 05:33:48;;;;;;;5.88;3.15;;;0.80;99.90;;;;;;5023552;28;20048;-75
2022/04/02 05:36:14;;;;;;;5.05;3.03;;;0.90;99.90;;;;;;5032942;28;20045;-75
2022/04/02 05:38:40;;;;;;;4.80;2.38;;;0.80;99.90;;;;;;5016234;28;20121;-75
2022/04/02 05:41:05;;;;;;;8.52;3.33;;;0.90;99.90;;;;;;5032651;28;20558;-75
2022/04/02 05:43:31;;;;;;;6.53;3.10;;;0.90;99.90;;;;;;5014695;28;20037;-74
2022/04/02 05:45:57;;;;;;;5.88;3.25;;;1.00;99.90;;;;;;5031055;28;20479;-75
2022/04/02 05:48:24;;;;;;;6.00;3.13;;;1.00;99.90;;;;;;5027640;28;20041;-75
2022/04/02 05:50:49;;;;;;;4.45;3.03;;;1.10;99.90;;;;;;5031006;28;20061;-75
2022/04/02 05:53:15;;;;;;;6.47;3.05;;;1.20;99.90;;;;;;5016324;28;20056;-75
2022/04/02 05:55:42;;;;;;;5.78;3.22;;;1.20;99.90;;;;;;5032460;28;20041;-75
2022/04/02 05:58:10;;;;;;;7.15;3.22;;;1.30;99.90;;;;;;5032085;28;20506;-75
2022/04/02 06:00:36;;;;;;;4.32;2.90;;;1.40;99.90;;;;;;5022031;28;20131;-75
2022/04/02 06:03:03;;;;;;;5.30;2.95;;;1.40;99.90;;;;;;5012612;28;20046;-75
2022/04/02 06:05:29;;;;;;;8.32;3.20;;;1.50;99.90;;;;;;5029588;28;20475;-75
2022/04/02 06:07:54;;;;;;;5.93;3.22;;;1.60;99.90;;;;;;5030951;28;20056;-75
2022/04/02 06:10:23;;;;;;;6.30;3.20;;;1.90;99.90;;;;;;5029141;28;20061;-74
2022/04/02 06:12:50;;;;;;;6.80;3.50;;;2.20;99.90;;;;;;5034219;28;20045;-75
2022/04/02 06:15:16;;;;;;;6.63;2.85;;;2.40;99.90;;;;;;5031526;28;20518;-75
2022/04/02 06:17:42;;;;;;;5.38;3.15;;;2.60;99.90;;;;;;5005320;28;20045;-75
2022/04/02 06:20:08;;;;;;;6.43;3.13;;;2.70;99.90;;;;;;5041003;28;20068;-75
2022/04/02 06:22:34;;;;;;;6.10;3.17;;;2.90;99.90;;;;;;5025539;28;20044;-74
2022/04/02 06:25:00;;;;;;;5.80;3.15;;;3.10;99.90;;;;;;5031719;28;20156;-74
2022/04/02 06:27:26;;;;;;;5.40;3.50;;;3.60;99.90;;;;;;5023637;28;20078;-75
2022/04/02 06:29:51;;;;;;;5.70;3.13;;;4.00;99.90;;;;;;5025251;28;20047;-75
2022/04/02 06:32:20;;;;;;;6.13;3.47;;;4.40;99.90;;;;;;5029542;28;20034;-75
2022/04/02 06:34:45;;;;;;;6.82;3.00;;;5.00;99.90;;;;;;5038113;28;20080;-75
2022/04/02 06:37:11;;;;;;;5.35;2.90;;;5.40;99.90;;;;;;5009910;28;20069;-75
2022/04/02 06:39:37;;;;;;;5.55;2.97;;;5.70;99.90;;;;;;5032550;28;20041;-75
2022/04/02 06:42:02;;;;;;;6.72;2.88;;;5.70;99.90;;;;;;5021900;28;20071;-75
2022/04/02 06:44:29;;;;;;;5.30;2.90;;;5.80;99.90;;;;;;5030555;28;20033;-75
2022/04/02 06:46:56;;;;;;;3.42;2.35;;;5.90;99.90;;;;;;5031271;28;20044;-75
2022/04/02 06:49:22;;;;;;;4.53;2.70;;;6.00;99.90;;;;;;5029996;28;20095;-75
2022/04/02 06:51:47;;;;;;;4.28;2.53;;;6.30;99.90;;;;;;5031801;28;20049;-75
2022/04/02 06:54:13;;;;;;;3.92;2.55;;;6.40;99.90;;;;;;5031458;28;20072;-75
2022/04/02 06:56:38;;;;;;;4.00;2.25;;;6.80;99.90;;;;;;5031017;28;20479;-75
2022/04/02 06:59:05;;;;;;;4.80;2.28;;;6.30;99.90;;;;;;5023025;28;20041;-75
2022/04/02 07:01:30;;;;;;;4.97;2.40;;;6.50;99.90;;;;;;5029501;28;20048;-75
2022/04/02 07:03:56;;;;;;;4.53;2.40;;;6.30;99.90;;;;;;5029392;28;20391;-75
2022/04/02 07:06:21;;;;;;;4.03;2.53;;;5.70;99.90;;;;;;5030562;28;20045;-75
2022/04/02 07:08:47;;;;;;;4.80;2.38;;;5.90;99.90;;;;;;5026490;28;20137;-75
2022/04/02 07:11:12;;;;;;;3.42;2.10;;;5.70;99.90;;;;;;5019164;28;20172;-74
2022/04/02 07:13:38;;;;;;;3.47;2.47;;;5.70;99.90;;;;;;5016851;28;20042;-75
2022/04/02 07:16:04;;;;;;;5.32;2.13;;;5.60;99.90;;;;;;5025990;28;20067;-74
2022/04/02 07:18:32;;;;;;;4.32;2.47;;;5.90;99.90;;;;;;5009081;28;20052;-74
2022/04/02 07:21:00;;;;;;;3.33;2.25;;;5.70;99.90;;;;;;5021276;28;20044;-75
2022/04/02 07:23:29;;;;;;;4.45;2.13;;;5.70;99.90;;;;;;5034037;28;20079;-75
2022/04/02 07:25:56;;;;;;;4.35;2.65;;;6.20;99.90;;;;;;5036700;28;20100;-74
2022/04/02 07:28:27;;;;;;;4.82;2.13;;;6.00;99.90;;;;;;5003998;28;20056;-75
2022/04/02 07:30:52;;;;;;;3.78;2.28;;;5.90;99.90;;;;;;5028418;28;20144;-74
2022/04/02 07:33:18;;;;;;;6.05;2.70;;;6.00;99.90;;;;;;5029599;28;20538;-75
2022/04/02 07:35:58;;;;;;;5.20;2.50;;;5.60;99.90;;;;;;5009414;28;20136;-75
2022/04/02 07:38:42;;;;;;;4.47;2.40;;;5.40;99.90;;;;;;5028991;28;20040;-75
2022/04/02 07:41:14;;;;;;;3.97;2.40;;;5.10;99.90;;;;;;5004304;28;20137;-75
2022/04/02 07:43:59;;;;;;;5.75;2.40;;;5.30;99.90;;;;;;5026978;28;20124;-76
2022/04/02 07:46:29;;;;;;;3.67;2.35;;;5.40;99.90;;;;;;5026300;28;20052;-75
2022/04/02 07:48:57;;;;;;;3.47;2.00;;;5.40;99.90;;;;;;5028788;28;20042;-74
2022/04/02 07:51:28;;;;;;;2.50;1.40;;;5.10;99.90;;;;;;5044736;28;20482;-75
2022/04/02 07:53:59;;;;;;;4.32;2.10;;;4.60;99.90;;;;;;5027455;28;20037;-75
2022/04/02 07:56:36;;;;;;;4.03;1.85;;;4.50;99.90;;;;;;5024303;28;20029;-75
2022/04/02 07:59:07;;;;;;;3.88;1.98;;;4.30;99.90;;;;;;5030433;28;20041;-75
2022/04/02 08:01:33;;;;;;;5.17;1.73;;;4.20;99.90;;;;;;5027411;28;20052;-74
2022/04/02 08:04:02;;;;;;;3.92;1.77;;;4.10;99.90;;;;;;5033437;28;20045;-75
2022/04/02 08:06:31;;;;;;;3.75;1.85;;;4.10;99.90;;;;;;5028062;28;20152;-75
2022/04/02 08:08:59;;;;;;;2.92;1.92;;;4.00;99.90;;;;;;5029673;28;20482;-75
2022/04/02 08:11:25;;;;;;;5.15;2.10;;;4.00;99.90;;;;;;5022927;28;20030;-75
2022/04/02 08:13:52;;;;;;;3.08;1.70;;;3.80;99.90;;;;;;5029205;28;20038;-74
2022/04/02 08:16:17;;;;;;;5.65;2.00;;;4.00;99.90;;;;;;5029710;28;20566;-74
2022/04/02 08:18:44;;;;;;;3.80;2.10;;;4.10;99.90;;;;;;5027745;28;20057;-75
2022/04/02 08:21:10;;;;;;;4.07;2.25;;;4.00;99.90;;;;;;5028651;28;20478;-74
2022/04/02 08:23:36;;;;;;;3.47;1.98;;;4.10;99.90;;;;;;5027447;28;20076;-75
2022/04/02 08:26:16;;;;;;;3.67;1.80;;;4.20;99.90;;;;;;5028234;28;20176;-74
2022/04/02 08:28:58;;;;;;;5.13;2.38;;;4.40;99.90;;;;;;5026178;28;20466;-75
2022/04/02 08:31:30;;;;;;;3.27;1.70;;;4.30;99.90;;;;;;5024827;28;20045;-75
2022/04/02 08:34:18;;;;;;;3.63;2.13;;;4.40;99.90;;;;;;5028148;28;20982;-75
2022/04/02 08:36:56;;;;;;;3.58;1.67;;;4.50;99.90;;;;;;5021544;28;20038;-75
2022/04/02 08:39:34;;;;;;;5.68;2.00;;;4.50;99.90;;;;;;5006671;28;20041;-75
2022/04/02 08:42:47;;;;;;;3.53;2.20;;;4.60;99.90;;;;;;5038446;28;20478;-75
2022/04/02 08:45:14;;;;;;;3.38;1.90;;;4.50;99.90;;;;;;4958132;28;20049;-75
2022/04/02 08:48:18;;;;;;;3.10;1.63;;;4.60;99.90;;;;;;5026555;28;20025;-75
2022/04/02 08:51:13;;;;;;;4.65;2.00;;;4.70;99.90;;;;;;5028732;28;20748;-75
2022/04/02 08:54:01;;;;;;;2.53;1.73;;;4.90;99.90;;;;;;5027559;28;20053;-75
2022/04/02 08:56:29;;;;;;;3.28;2.15;;;4.80;99.90;;;;;;5024623;28;20087;-75
2022/04/02 08:59:04;;;;;;;3.17;1.95;;;4.70;99.90;;;;;;5028751;28;20120;-75
2022/04/02 09:01:38;;;;;;;4.07;1.83;;;4.90;99.90;;;;;;5029105;28;20045;-75
2022/04/02 09:04:25;;;;;;;4.63;1.98;;;5.00;99.90;;;;;;5029363;28;20041;-75
2022/04/02 09:06:58;;;;;;;3.40;1.73;;;4.90;99.90;;;;;;5025179;28;20042;-79
2022/04/02 09:09:58;;;;;;;3.22;1.83;;;4.70;99.90;;;;;;5024875;28;20048;-79
2022/04/02 09:13:11;;;;;;;4.28;1.50;;;4.70;99.90;;;;;;5023560;28;20083;-78
2022/04/02 09:15:50;;;;;;;3.95;1.60;;;4.50;99.90;;;;;;5018563;28;20037;-78
2022/04/02 09:18:33;;;;;;;1.42;1.10;;;4.50;99.90;;;;;;5023133;28;20080;-78
2022/04/02 09:21:15;;;;;;;2.17;1.55;;;4.50;99.90;;;;;;5027307;28;20053;-78
2022/04/02 09:24:01;;;;;;;4.95;1.73;;;4.30;99.90;;;;;;5007085;28;20132;-78
2022/04/02 09:26:38;;;;;;;5.68;1.70;;;4.20;99.90;;;;;;5021165;28;20046;-77
2022/04/02 09:29:17;;;;;;;2.42;1.30;;;4.20;99.90;;;;;;5024355;28;20406;-75
2022/04/02 09:32:14;;;;;;;4.15;1.80;;;4.10;99.90;;;;;;5027116;28;20561;-75
2022/04/02 09:35:02;;;;;;;4.00;1.70;;;4.10;99.90;;;;;;5025471;28;20148;-76
2022/04/02 09:38:06;;;;;;;6.45;2.00;;;4.10;99.90;;;;;;5022375;28;20036;-75
2022/04/02 09:40:49;;;;;;;1.40;1.30;;;4.00;99.90;;;;;;5015620;28;20040;-75
2022/04/02 09:43:31;;;;;;;4.28;1.55;;;3.80;99.90;;;;;;5029389;28;20033;-75
2022/04/02 09:46:06;;;;;;;;;;;3.60;99.90;;;;;;5027457;28;20129;-75
2022/04/02 09:48:45;;;;;;;2.78;1.67;;;3.60;99.90;;;;;;5019548;28;20331;-75
2022/04/02 09:51:14;;;;;;;2.28;1.42;;;3.80;99.90;;;;;;5042391;22;20049;-75
2022/04/02 09:53:58;;;;;;;2.55;1.52;;;4.10;99.90;;;;;;5040708;28;20052;-75
2022/04/02 09:56:32;;;;;;;4.28;1.48;;;4.30;99.90;;;;;;5038981;28;20115;-75
2022/04/02 09:59:02;;;;;;;4.30;1.38;;;4.70;99.90;;;;;;5042346;28;20106;-75
2022/04/02 10:01:30;;;;;;;3.22;1.60;;;5.00;99.90;;;;;;5031499;28;20055;-75
2022/04/02 10:04:04;;;;;;;2.10;1.08;;;5.30;99.90;;;;;;5042862;28;20047;-75
2022/04/02 10:06:41;;;;;;;3.88;1.48;;;5.40;98.70;;;;;;5042260;28;20383;-75
2022/04/02 10:09:12;;;;;;;2.97;1.15;;;5.10;98.50;;;;;;5019174;28;20045;-75
2022/04/02 10:11:57;;;;;;;1.55;1.10;;;5.10;99.90;;;;;;5044588;28;20045;-75
2022/04/02 10:14:28;;;;;;;2.35;1.00;;;5.40;99.90;;;;;;5051046;28;20029;-75
2022/04/02 10:17:01;;;;;;;1.73;1.00;;;5.60;99.90;;;;;;5029281;28;20037;-75
2022/04/02 10:19:32;;;;;;;2.75;1.67;;;5.60;99.90;;;;;;5051758;28;20055;-75
2022/04/02 10:22:11;;;;;;;1.70;1.48;;;5.50;99.90;;;;;;5048904;28;20045;-75
2022/04/02 10:24:37;;;;;;;2.08;1.52;;;5.40;99.90;;;;;;5026546;28;20040;-75
2022/04/02 10:27:06;;;;;;;5.80;1.48;;;5.40;99.90;;;;;;5048390;28;20041;-76
2022/04/02 10:29:57;;;;;;;1.90;1.20;;;5.40;99.90;;;;;;5035236;28;20045;-75
2022/04/02 10:32:47;;;;;;;3.50;1.75;;;5.50;98.20;;;;;;5030823;28;20102;-75
2022/04/02 10:35:13;;;;;;;2.25;1.30;;;6.10;99.90;;;;;;5034003;28;20658;-75
2022/04/02 10:37:50;;;;;;;4.05;1.52;;;6.20;93.60;;;;;;5033469;28;20037;-75
2022/04/02 10:40:18;;;;;;;2.63;1.33;;;6.20;93.20;;;;;;5051417;28;20033;-75
2022/04/02 10:43:06;;;;;;;3.22;1.13;;;6.30;92.10;;;;;;5044064;28;20108;-75
2022/04/02 10:45:35;;;;;;;2.33;1.30;;;6.20;88.40;;;;;;5047463;28;20060;-75
2022/04/02 10:48:10;;;;;;;2.78;1.33;;;6.00;89.50;;;;;;5039792;28;20033;-75
2022/04/02 10:50:42;;;;;;;2.75;1.20;;;6.10;92.70;;;;;;5031484;28;20037;-75
2022/04/02 10:53:13;;;;;;;2.38;1.05;;;6.50;94.60;;;;;;5050949;28;20071;-75
2022/04/02 10:55:43;;;;;;;1.95;1.33;;;6.00;93.80;;;;;;5048777;28;20045;-75
2022/04/02 10:58:11;;;;;;;4.03;1.38;;;6.10;96.00;;;;;;5051027;28;20483;-74
2022/04/02 11:00:43;;;;;;;4.20;1.50;;;5.60;96.40;;;;;;5043884;28;20037;-75
2022/04/02 11:03:36;;;;;;;3.22;1.55;;;5.40;97.50;;;;;;5045708;28;20037;-75
2022/04/02 11:06:02;;;;;;;3.13;1.40;;;5.00;98.40;;;;;;5035973;28;20452;-75
2022/04/02 11:08:31;;;;;;;2.78;1.33;;;4.90;99.90;;;;;;5029698;28;20033;-75
2022/04/02 11:11:36;;;;;;;2.33;1.30;;;4.80;99.90;;;;;;5050523;28;20052;-75
2022/04/02 11:14:02;;;;;;;3.08;1.40;;;4.60;99.60;;;;;;4997190;28;20689;-75
2022/04/02 11:16:40;;;;;;;2.40;1.40;;;4.70;99.90;;;;;;5030604;28;20091;-75
2022/04/02 11:22:00;;;;;;;2.65;1.52;;;4.80;97.60;;;;;;5043540;28;20471;-75
2022/04/02 11:24:28;;;;;;;1.85;1.40;;;5.00;99.60;;;;;;5047144;28;20052;-74
2022/04/02 11:26:55;;;;;;;2.95;1.40;;;5.20;99.90;;;;;;5047183;28;20650;-75
2022/04/02 11:29:24;;;;;;;2.72;1.30;;;5.20;99.90;;;;;;5033039;28;20045;-75
2022/04/02 11:31:50;;;;;;;2.88;1.60;;;5.20;99.40;;;;;;5047040;28;20424;-75
2022/04/02 11:34:20;;;;;;;3.25;1.48;;;5.30;98.80;;;;;;5024195;28;20037;-75
2022/04/02 11:36:47;;;;;;;3.00;1.50;;;5.50;97.90;;;;;;5049876;28;20585;-75
2022/04/02 11:39:21;;;;;;;1.67;1.20;;;5.70;97.40;;;;;;5048780;28;20554;-75
2022/04/02 11:41:53;;;;;;;1.70;1.08;;;6.00;94.90;;;;;;5050213;28;20047;-75
2022/04/02 11:44:20;;;;;;;2.15;1.05;;;6.20;94.80;;;;;;5045320;28;20059;-75
2022/04/02 11:46:54;;;;;;;1.58;0.95;;;6.20;92.50;;;;;;5048594;28;20041;-75
2022/04/02 11:49:29;;;;;;;1.33;1.05;;;6.00;87.30;;;;;;5029438;28;20064;-75
2022/04/02 11:51:59;;;;;;;2.58;1.30;;;6.00;84.90;;;;;;5044466;28;20049;-75
2022/04/02 11:54:25;;;;;;;3.85;1.40;;;5.90;92.30;;;;;;5044476;28;20037;-75
2022/04/02 11:56:50;;;;;;;2.05;1.13;;;5.90;93.80;;;;;;5046045;28;20037;-75
2022/04/02 11:59:17;;;;;;;6.43;1.65;;;6.20;96.00;;;;;;5048831;28;20044;-75
2022/04/02 12:01:44;;;;;;;2.53;1.80;;;6.20;95.80;;;;;;5032044;28;20072;-75
2022/04/02 12:04:18;;;;;;;1.77;1.20;;;6.10;94.50;;;;;;5046753;28;20781;-75
2022/04/02 12:06:46;;;;;;;1.35;1.10;;;6.30;95.80;;;;;;5043118;28;20041;-75
2022/04/02 12:09:18;;;;;;;2.65;1.20;;;6.00;94.00;;;;;;5045863;28;20419;-75
2022/04/02 12:11:49;;;;;;;3.05;1.08;;;6.20;92.10;;;;;;5043109;28;20076;-75
2022/04/02 12:14:35;;;;;;;1.88;1.00;;;6.00;86.60;;;;;;5027137;28;20067;-75
2022/04/02 12:17:09;;;;;;;5.32;1.45;;;6.30;91.10;;;;;;5049052;28;20053;-75
2022/04/02 12:19:53;;;;;;;2.08;1.08;;;6.50;86.40;;;;;;5027539;28;20123;-75
2022/04/02 12:22:31;;;;;;;3.92;1.00;;;6.60;83.60;;;;;;5027527;28;20037;-75
2022/04/02 12:25:03;;;;;;;1.00;0.80;;;7.10;92.30;;;;;;5045558;28;20037;-75
2022/04/02 12:27:34;;;;;;;1.95;1.02;;;6.70;66.10;;;;;;5047102;28;20048;-75
2022/04/02 12:30:03;;;;;;;1.73;1.00;;;6.60;70.00;;;;;;5048494;28;20055;-75
2022/04/02 12:32:33;;;;;;;1.23;0.82;;;7.10;80.60;;;;;;5037931;28;20106;-74
2022/04/02 12:35:01;;;;;;;2.00;0.90;;;7.10;71.10;;;;;;5041822;28;20063;-76
2022/04/02 12:37:30;;;;;;;3.42;1.08;;;7.20;70.70;;;;;;5020298;28;20041;-74
2022/04/02 12:39:57;;;;;;;2.17;1.10;;;7.10;66.00;;;;;;5036685;28;20048;-74
2022/04/02 12:42:40;;;;;;;3.28;0.95;;;7.30;69.60;;;;;;5048486;28;20128;-75
2022/04/02 12:45:12;;;;;;;1.90;0.77;;;7.30;67.10;;;;;;5029286;28;20046;-75
2022/04/02 12:47:37;;;;;;;2.53;1.20;;;7.20;69.70;;;;;;5041717;28;20046;-75
2022/04/02 12:50:16;;;;;;;1.25;1.00;;;6.80;64.00;;;;;;5047576;28;20032;-74
2022/04/02 12:52:47;;;;;;;2.50;0.93;;;6.80;72.30;;;;;;5043305;28;20049;-74
2022/04/02 12:55:22;;;;;;;2.90;1.23;;;7.00;72.80;;;;;;5041607;28;20056;-74
2022/04/02 12:58:00;;;;;;;2.25;1.17;;;7.10;75.60;;;;;;5045028;28;20426;-75
2022/04/02 13:00:31;;;;;;;2.00;1.63;;;7.30;76.60;;;;;;5017755;28;20029;-75
2022/04/02 13:03:01;;;;;;;1.42;1.10;;;7.40;78.30;;;;;;5043630;28;20075;-75
2022/04/02 13:05:44;;;;;;;3.05;1.48;;;6.50;74.40;;;;;;5043030;28;20155;-74
2022/04/02 13:08:25;;;;;;;2.97;1.30;;;6.40;80.50;;;;;;5046530;28;20469;-74
2022/04/02 13:10:53;;;;;;;2.53;1.15;;;6.10;72.20;;;;;;5028447;28;20072;-74
2022/04/02 13:13:37;;;;;;;1.67;1.13;;;5.90;76.50;;;;;;5042604;28;20044;-74
2022/04/02 13:16:04;;;;;;;3.47;1.20;;;6.10;81.90;;;;;;5026466;28;20546;-74
2022/04/02 13:21:20;;;;;;;1.95;1.23;;;6.20;75.10;;;;;;5043097;28;20588;-74
2022/04/02 13:24:04;;;;;;;2.10;1.42;;;6.10;69.70;;;;;;5044968;28;20087;-74